Time;durP1;ratioP1;P1;durP2;ratioP2;P2;SDS_P1;SDS_P2;PMS_P1;PMS_P2;Temp;Humidity;BMP_temperature;BMP_pressure;BME280_temperature;BME280_humidity;BME280_pressure;Samples;Min_cycle;Max_cycle;Signal;HPM_P1;HPM_P2
2023/04/17 00:02:00;;;;;;;513.53;234.97;;;;;;;;;;5042926;28;20102;-56
2023/04/17 00:04:25;;;;;;;512.08;252.95;;;;;;;;;;5043465;28;20255;-58
2023/04/17 00:06:52;;;;;;;535.53;237.25;;;;;;;;;;5043128;28;20040;-59
2023/04/17 00:09:17;;;;;;;526.00;237.95;;;;;;;;;;5043327;28;20020;-59
2023/04/17 00:11:43;;;;;;;500.50;229.13;;;;;;;;;;5043502;28;20035;-58
2023/04/17 00:14:08;;;;;;;504.60;234.98;;;;;;;;;;5041277;28;20039;-58
2023/04/17 00:16:33;;;;;;;525.20;245.15;;;;;;;;;;5043707;28;20510;-57
2023/04/17 00:18:58;;;;;;;542.60;213.68;;;;;;;;;;5041215;28;20969;-58
2023/04/17 00:21:24;;;;;;;498.50;227.57;;;;;;;;;;5040861;28;20025;-58
2023/04/17 00:23:50;;;;;;;487.77;225.70;;;;;;;;;;5041065;28;20030;-58
2023/04/17 00:26:15;;;;;;;533.60;228.50;;;;;;;;;;5044087;28;20171;-56
2023/04/17 00:28:40;;;;;;;494.35;213.65;;;;;;;;;;5045462;28;20263;-59
2023/04/17 00:31:05;;;;;;;484.00;213.68;;;;;;;;;;5040507;28;20039;-58
2023/04/17 00:33:31;;;;;;;484.48;215.35;;;;;;;;;;5040598;28;20020;-58
2023/04/17 00:35:56;;;;;;;478.48;220.85;;;;;;;;;;5043364;28;20843;-58
2023/04/17 00:38:21;;;;;;;503.83;222.40;;;;;;;;;;5041663;28;20036;-59
2023/04/17 00:40:47;;;;;;;520.20;229.53;;;;;;;;;;5043539;28;20059;-58
2023/04/17 00:43:13;;;;;;;524.90;225.98;;;;;;;;;;5044253;28;20370;-58
2023/04/17 00:45:38;;;;;;;516.10;223.25;;;;;;;;;;5041925;28;20540;-57
2023/04/17 00:48:05;;;;;;;512.22;230.73;;;;;;;;;;5043401;28;20375;-57
2023/04/17 00:50:30;;;;;;;466.65;205.52;;;;;;;;;;5043688;28;20063;-59
2023/04/17 00:52:56;;;;;;;557.28;216.25;;;;;;;;;;5040350;28;20028;-59
2023/04/17 00:55:22;;;;;;;518.10;239.32;;;;;;;;;;5043714;28;20439;-59
2023/04/17 00:57:48;;;;;;;525.28;227.80;;;;;;;;;;5043144;28;20024;-58
2023/04/17 01:00:14;;;;;;;501.67;230.60;;;;;;;;;;5043800;28;20029;-58
2023/04/17 01:02:40;;;;;;;503.63;230.80;;;;;;;;;;5041095;28;20017;-58
2023/04/17 01:05:05;;;;;;;542.05;246.80;;;;;;;;;;5041380;28;20031;-58
2023/04/17 01:07:30;;;;;;;507.85;232.73;;;;;;;;;;5042559;28;20037;-59
2023/04/17 01:09:55;;;;;;;529.25;249.27;;;;;;;;;;5041106;28;20033;-59
2023/04/17 01:12:22;;;;;;;521.55;247.77;;;;;;;;;;5040649;28;20106;-59
2023/04/17 01:14:50;;;;;;;544.15;254.88;;;;;;;;;;5038164;28;20021;-58
2023/04/17 01:17:17;;;;;;;558.05;249.13;;;;;;;;;;5041802;28;20036;-58
2023/04/17 01:19:43;;;;;;;516.25;246.85;;;;;;;;;;5048564;28;20017;-58
2023/04/17 01:22:08;;;;;;;475.63;231.02;;;;;;;;;;5044868;28;20033;-59
2023/04/17 01:24:33;;;;;;;534.28;247.75;;;;;;;;;;5047688;28;20045;-59
2023/04/17 01:26:58;;;;;;;521.27;241.63;;;;;;;;;;5047011;28;20140;-58
2023/04/17 01:29:24;;;;;;;544.53;257.20;;;;;;;;;;5046386;28;20534;-58
2023/04/17 01:31:49;;;;;;;534.60;247.88;;;;;;;;;;5050531;28;20333;-59
2023/04/17 01:34:14;;;;;;;529.45;251.82;;;;;;;;;;5044534;28;20475;-58
2023/04/17 01:36:40;;;;;;;518.28;250.98;;;;;;;;;;5047611;28;20032;-56
2023/04/17 01:39:06;;;;;;;548.67;244.43;;;;;;;;;;5046603;28;20029;-56
2023/04/17 01:41:31;;;;;;;519.65;240.43;;;;;;;;;;5047327;28;20025;-60
2023/04/17 01:43:56;;;;;;;522.53;240.80;;;;;;;;;;5045872;28;20025;-58
2023/04/17 01:46:22;;;;;;;509.70;242.48;;;;;;;;;;5045447;28;20128;-59
2023/04/17 01:48:47;;;;;;;512.63;238.88;;;;;;;;;;5045253;28;20124;-56
2023/04/17 01:51:12;;;;;;;518.90;245.93;;;;;;;;;;5044512;28;20124;-58
2023/04/17 01:53:38;;;;;;;531.13;238.30;;;;;;;;;;5043067;28;20035;-58
2023/04/17 01:56:03;;;;;;;526.63;242.75;;;;;;;;;;5045535;28;20025;-58
2023/04/17 01:58:28;;;;;;;503.13;244.93;;;;;;;;;;5044092;28;20026;-57
2023/04/17 02:00:54;;;;;;;505.20;236.40;;;;;;;;;;5041321;28;20603;-57
2023/04/17 02:03:19;;;;;;;545.45;237.32;;;;;;;;;;5043247;28;20521;-54
2023/04/17 02:05:47;;;;;;;565.03;255.10;;;;;;;;;;5046238;28;20104;-56
2023/04/17 02:08:13;;;;;;;538.92;254.73;;;;;;;;;;5045230;28;20077;-56
2023/04/17 02:10:39;;;;;;;532.35;264.75;;;;;;;;;;5046127;28;20045;-57
2023/04/17 02:13:04;;;;;;;628.20;259.30;;;;;;;;;;5042788;28;20044;-56
2023/04/17 02:15:29;;;;;;;537.20;246.87;;;;;;;;;;5040923;28;20127;-54
2023/04/17 02:17:54;;;;;;;531.15;244.50;;;;;;;;;;5042518;28;20294;-57
2023/04/17 02:20:20;;;;;;;511.80;240.55;;;;;;;;;;5041150;28;20016;-57
2023/04/17 02:22:45;;;;;;;516.08;247.25;;;;;;;;;;5042345;28;20041;-57
2023/04/17 02:25:10;;;;;;;525.75;246.98;;;;;;;;;;5043941;28;20023;-56
2023/04/17 02:27:35;;;;;;;516.65;240.95;;;;;;;;;;5044918;28;20466;-57
2023/04/17 02:30:35;;;;;;;529.40;248.98;;;;;;;;;;5046230;28;20036;-56
2023/04/17 02:33:00;;;;;;;605.88;237.77;;;;;;;;;;5039889;28;20482;-56
2023/04/17 02:35:27;;;;;;;509.58;235.32;;;;;;;;;;5042392;28;20027;-56
2023/04/17 02:37:52;;;;;;;516.78;245.27;;;;;;;;;;5043569;28;20029;-56
2023/04/17 02:40:17;;;;;;;508.10;236.88;;;;;;;;;;5042059;28;20020;-56
2023/04/17 02:42:43;;;;;;;490.08;241.45;;;;;;;;;;5046520;28;20781;-56
2023/04/17 02:45:09;;;;;;;537.08;240.77;;;;;;;;;;5043810;28;20090;-57
2023/04/17 02:47:34;;;;;;;531.50;249.00;;;;;;;;;;5045517;28;20021;-58
2023/04/17 02:49:59;;;;;;;539.10;246.93;;;;;;;;;;5043754;28;20025;-58
2023/04/17 02:52:26;;;;;;;540.45;245.07;;;;;;;;;;5043996;28;20063;-57
2023/04/17 02:54:51;;;;;;;532.35;258.83;;;;;;;;;;5046405;28;20016;-57
2023/04/17 02:57:16;;;;;;;485.38;231.90;;;;;;;;;;5045995;28;20086;-56
2023/04/17 02:59:41;;;;;;;545.95;261.77;;;;;;;;;;5043140;28;20021;-55
2023/04/17 03:02:07;;;;;;;535.05;247.20;;;;;;;;;;5044294;28;20115;-54
2023/04/17 03:04:33;;;;;;;546.53;247.23;;;;;;;;;;5041657;28;20575;-57
2023/04/17 03:06:58;;;;;;;520.15;244.68;;;;;;;;;;5045847;28;20029;-57
2023/04/17 03:09:24;;;;;;;515.80;254.98;;;;;;;;;;5046586;28;20059;-56
2023/04/17 03:11:50;;;;;;;530.20;248.15;;;;;;;;;;5042406;28;20048;-55
2023/04/17 03:14:15;;;;;;;513.65;246.88;;;;;;;;;;5045537;28;20492;-57
2023/04/17 03:16:41;;;;;;;520.50;244.50;;;;;;;;;;5046194;28;20517;-57
2023/04/17 03:19:06;;;;;;;552.85;251.48;;;;;;;;;;5043559;28;20036;-57
2023/04/17 03:21:31;;;;;;;725.03;252.17;;;;;;;;;;5041571;28;20028;-56
2023/04/17 03:23:57;;;;;;;541.22;250.10;;;;;;;;;;5037511;28;20243;-56
2023/04/17 03:26:22;;;;;;;533.63;254.18;;;;;;;;;;5042477;28;20648;-55
2023/04/17 03:28:47;;;;;;;491.98;246.70;;;;;;;;;;5043548;28;20016;-55
2023/04/17 03:31:12;;;;;;;551.03;252.02;;;;;;;;;;5041742;28;20029;-57
2023/04/17 03:33:37;;;;;;;528.90;248.93;;;;;;;;;;5044869;28;20021;-57
2023/04/17 03:36:03;;;;;;;515.67;241.98;;;;;;;;;;5044627;28;20267;-56
2023/04/17 03:38:28;;;;;;;555.80;256.58;;;;;;;;;;5047106;28;20738;-56
2023/04/17 03:40:53;;;;;;;509.60;229.93;;;;;;;;;;5041266;28;20040;-57
2023/04/17 03:43:19;;;;;;;532.15;239.05;;;;;;;;;;5043603;28;20263;-56
2023/04/17 03:45:44;;;;;;;502.95;258.52;;;;;;;;;;5044215;28;20063;-58
2023/04/17 03:48:09;;;;;;;550.53;264.50;;;;;;;;;;5044778;28;20048;-57
2023/04/17 03:50:34;;;;;;;534.53;233.85;;;;;;;;;;5045634;28;20029;-57
2023/04/17 03:53:00;;;;;;;616.63;244.07;;;;;;;;;;5045588;28;20039;-58
2023/04/17 03:55:25;;;;;;;510.38;235.27;;;;;;;;;;5044494;28;20466;-57
2023/04/17 03:57:50;;;;;;;495.05;236.25;;;;;;;;;;5043967;28;20017;-57
2023/04/17 04:00:16;;;;;;;504.27;247.17;;;;;;;;;;5041595;28;20031;-57
2023/04/17 04:02:41;;;;;;;540.25;251.20;;;;;;;;;;5044598;28;20256;-58
2023/04/17 04:05:06;;;;;;;533.22;249.10;;;;;;;;;;5040659;28;20016;-57
2023/04/17 04:07:32;;;;;;;522.10;246.45;;;;;;;;;;5043197;28;20064;-56
2023/04/17 04:09:57;;;;;;;549.65;246.32;;;;;;;;;;5043688;28;20040;-56
2023/04/17 04:12:22;;;;;;;517.83;251.43;;;;;;;;;;5043158;28;20195;-56
2023/04/17 04:14:47;;;;;;;551.63;268.60;;;;;;;;;;5042800;28;20382;-57
2023/04/17 04:17:13;;;;;;;515.17;247.95;;;;;;;;;;5042389;28;20041;-56
2023/04/17 04:19:38;;;;;;;545.97;253.07;;;;;;;;;;5045870;28;20070;-57
2023/04/17 04:22:03;;;;;;;537.35;254.85;;;;;;;;;;5042673;28;20890;-58
2023/04/17 04:24:29;;;;;;;535.53;261.17;;;;;;;;;;5041615;28;20532;-57
2023/04/17 04:27:01;;;;;;;538.28;258.80;;;;;;;;;;5042576;28;21024;-56
2023/04/17 04:29:26;;;;;;;522.83;253.93;;;;;;;;;;5042301;28;20041;-57
2023/04/17 04:31:51;;;;;;;522.03;248.85;;;;;;;;;;5041238;28;20111;-57
2023/04/17 04:34:16;;;;;;;512.63;249.43;;;;;;;;;;5043708;28;20024;-57
2023/04/17 04:36:48;;;;;;;504.08;250.43;;;;;;;;;;5041592;28;20332;-56
2023/04/17 04:39:19;;;;;;;536.17;254.35;;;;;;;;;;5038511;28;20046;-54
2023/04/17 04:41:44;;;;;;;528.95;251.60;;;;;;;;;;5042412;28;20048;-58
2023/04/17 04:44:09;;;;;;;521.92;256.17;;;;;;;;;;5044188;28;20021;-58
2023/04/17 04:46:35;;;;;;;539.78;252.25;;;;;;;;;;5043344;28;20041;-58
2023/04/17 04:49:00;;;;;;;593.57;256.73;;;;;;;;;;5040380;28;20029;-58
2023/04/17 04:51:25;;;;;;;516.90;244.10;;;;;;;;;;5041627;28;20313;-57
2023/04/17 04:53:50;;;;;;;545.80;247.45;;;;;;;;;;5044659;28;20413;-58
2023/04/17 04:56:16;;;;;;;537.72;277.52;;;;;;;;;;5041367;28;20033;-58
2023/04/17 04:58:41;;;;;;;546.40;269.75;;;;;;;;;;5044695;28;20105;-58
2023/04/17 05:01:06;;;;;;;572.30;265.50;;;;;;;;;;5044813;28;20826;-58
2023/04/17 05:03:32;;;;;;;551.30;251.82;;;;;;;;;;5046859;28;20516;-58
2023/04/17 05:05:57;;;;;;;535.70;258.05;;;;;;;;;;5046797;28;20048;-58
2023/04/17 05:08:22;;;;;;;517.28;252.23;;;;;;;;;;5045423;28;20189;-58
2023/04/17 05:10:48;;;;;;;538.20;256.53;;;;;;;;;;5048671;28;20028;-56
2023/04/17 05:13:13;;;;;;;579.25;262.60;;;;;;;;;;5043994;28;20252;-58
2023/04/17 05:15:40;;;;;;;561.15;262.38;;;;;;;;;;5045006;28;20055;-58
2023/04/17 05:18:05;;;;;;;541.60;262.02;;;;;;;;;;5042292;28;20857;-58
2023/04/17 05:20:30;;;;;;;556.33;258.55;;;;;;;;;;5042970;28;20048;-58
2023/04/17 05:22:56;;;;;;;613.72;259.00;;;;;;;;;;5046434;28;20059;-57
2023/04/17 05:25:21;;;;;;;548.63;264.00;;;;;;;;;;5047455;28;20059;-58
2023/04/17 05:27:46;;;;;;;560.40;279.60;;;;;;;;;;5045627;28;20481;-56
2023/04/17 05:30:12;;;;;;;546.65;262.35;;;;;;;;;;5042417;28;20437;-58
2023/04/17 05:32:37;;;;;;;578.90;265.13;;;;;;;;;;5044653;28;20008;-58
2023/04/17 05:35:03;;;;;;;568.65;268.98;;;;;;;;;;5045913;28;20069;-57
2023/04/17 05:37:29;;;;;;;533.10;261.67;;;;;;;;;;5042516;28;20094;-57
2023/04/17 05:39:54;;;;;;;543.05;253.27;;;;;;;;;;5043660;28;20033;-57
2023/04/17 05:42:19;;;;;;;540.85;259.55;;;;;;;;;;5047553;28;20585;-58
2023/04/17 05:44:45;;;;;;;547.95;258.58;;;;;;;;;;5045446;28;20009;-57
2023/04/17 05:47:10;;;;;;;566.30;270.30;;;;;;;;;;5046278;28;20044;-59
2023/04/17 05:49:35;;;;;;;570.97;272.83;;;;;;;;;;5048806;28;20032;-58
2023/04/17 05:52:01;;;;;;;581.80;277.70;;;;;;;;;;5045387;28;20033;-58
2023/04/17 05:54:29;;;;;;;548.38;266.30;;;;;;;;;;5046120;28;20070;-57
2023/04/17 05:56:55;;;;;;;560.70;261.65;;;;;;;;;;5044954;28;20047;-58
2023/04/17 05:59:20;;;;;;;579.15;271.35;;;;;;;;;;5043594;28;20681;-56
2023/04/17 06:01:46;;;;;;;540.67;256.85;;;;;;;;;;5046865;28;20110;-57
2023/04/17 06:04:11;;;;;;;599.22;290.85;;;;;;;;;;5046646;28;20051;-57
2023/04/17 06:06:36;;;;;;;567.15;270.80;;;;;;;;;;5047881;28;20765;-59
2023/04/17 06:09:03;;;;;;;589.03;267.10;;;;;;;;;;5045107;28;20612;-58
2023/04/17 06:11:28;;;;;;;571.05;269.67;;;;;;;;;;5044781;28;20263;-58
2023/04/17 06:13:54;;;;;;;538.67;262.83;;;;;;;;;;5044717;28;20040;-58
2023/04/17 06:16:19;;;;;;;584.90;276.33;;;;;;;;;;5044929;28;20565;-56
2023/04/17 06:18:44;;;;;;;599.13;274.85;;;;;;;;;;5042122;28;20032;-58
2023/04/17 06:21:09;;;;;;;560.83;271.17;;;;;;;;;;5043691;28;20055;-57
2023/04/17 06:23:35;;;;;;;565.83;276.85;;;;;;;;;;5041962;28;20777;-58
2023/04/17 06:26:01;;;;;;;620.03;301.93;;;;;;;;;;5046354;28;20107;-56
2023/04/17 06:28:26;;;;;;;582.30;271.23;;;;;;;;;;5046252;28;20333;-58
2023/04/17 06:30:51;;;;;;;599.47;283.40;;;;;;;;;;5045237;28;20021;-56
2023/04/17 06:33:16;;;;;;;647.97;325.80;;;;;;;;;;5043092;28;20021;-56
2023/04/17 06:35:42;;;;;;;557.50;279.57;;;;;;;;;;5045779;28;20029;-57
2023/04/17 06:38:07;;;;;;;618.33;298.83;;;;;;;;;;5046518;28;20247;-56
2023/04/17 06:40:33;;;;;;;591.17;292.80;;;;;;;;;;5044578;28;20116;-57
2023/04/17 06:42:58;;;;;;;680.17;304.55;;;;;;;;;;5046147;28;20017;-57
2023/04/17 06:45:23;;;;;;;612.22;286.75;;;;;;;;;;5043424;28;20402;-57
2023/04/17 06:47:49;;;;;;;608.50;287.90;;;;;;;;;;5044673;28;20368;-57
2023/04/17 06:50:15;;;;;;;613.07;294.30;;;;;;;;;;5042289;28;20082;-57
2023/04/17 06:52:41;;;;;;;569.92;281.80;;;;;;;;;;5048041;28;20247;-57
2023/04/17 06:55:06;;;;;;;620.85;319.80;;;;;;;;;;5044600;28;20758;-57
2023/04/17 06:57:32;;;;;;;604.58;282.05;;;;;;;;;;5043295;28;20031;-59
2023/04/17 06:59:58;;;;;;;630.78;290.88;;;;;;;;;;5045371;28;20032;-56
2023/04/17 07:02:23;;;;;;;578.15;280.25;;;;;;;;;;5047726;28;20453;-57
2023/04/17 07:04:48;;;;;;;581.80;261.90;;;;;;;;;;5045181;28;20012;-57
2023/04/17 07:07:14;;;;;;;606.60;286.10;;;;;;;;;;5045564;28;20282;-55
2023/04/17 07:09:41;;;;;;;588.95;277.38;;;;;;;;;;5046225;28;20127;-57
2023/04/17 07:12:07;;;;;;;583.13;283.80;;;;;;;;;;5044974;28;20026;-58
2023/04/17 07:14:32;;;;;;;595.00;297.90;;;;;;;;;;5041240;28;20021;-57
2023/04/17 07:16:57;;;;;;;627.78;281.08;;;;;;;;;;5043637;28;20037;-58
2023/04/17 07:19:22;;;;;;;618.92;293.05;;;;;;;;;;5042555;28;20017;-57
2023/04/17 07:21:48;;;;;;;598.17;281.00;;;;;;;;;;5043707;28;20072;-56
2023/04/17 07:24:13;;;;;;;614.53;288.87;;;;;;;;;;5040793;28;20024;-57
2023/04/17 07:26:39;;;;;;;589.08;282.73;;;;;;;;;;5044551;28;20260;-57
2023/04/17 07:29:04;;;;;;;671.55;303.98;;;;;;;;;;5042706;28;20087;-57
2023/04/17 07:31:30;;;;;;;615.00;295.45;;;;;;;;;;5042058;28;21013;-58
2023/04/17 07:33:55;;;;;;;643.10;324.45;;;;;;;;;;5043550;28;20021;-58
2023/04/17 07:36:20;;;;;;;625.80;306.70;;;;;;;;;;5043106;28;20115;-57
2023/04/17 07:38:45;;;;;;;626.50;314.75;;;;;;;;;;5045953;28;20392;-57
2023/04/17 07:41:11;;;;;;;608.28;295.58;;;;;;;;;;5045061;28;20506;-57
2023/04/17 07:43:37;;;;;;;619.15;291.30;;;;;;;;;;5039970;28;20021;-56
2023/04/17 07:46:02;;;;;;;641.30;316.17;;;;;;;;;;5037192;28;20597;-58
2023/04/17 07:48:27;;;;;;;657.92;335.75;;;;;;;;;;5043159;28;20099;-57
2023/04/17 07:50:53;;;;;;;613.80;319.50;;;;;;;;;;5040090;28;20028;-56
2023/04/17 07:53:19;;;;;;;618.92;312.67;;;;;;;;;;5044553;28;20844;-58
2023/04/17 07:55:44;;;;;;;650.80;316.92;;;;;;;;;;5043600;28;20108;-58
2023/04/17 07:58:10;;;;;;;630.78;315.75;;;;;;;;;;5045236;28;20905;-57
2023/04/17 08:00:36;;;;;;;655.83;318.92;;;;;;;;;;5040596;28;20037;-57
2023/04/17 08:03:01;;;;;;;721.13;294.85;;;;;;;;;;5045516;28;20025;-58
2023/04/17 08:05:28;;;;;;;605.03;285.02;;;;;;;;;;5042275;28;20036;-57
2023/04/17 08:07:53;;;;;;;620.22;294.83;;;;;;;;;;5041686;28;20620;-57
2023/04/17 08:10:18;;;;;;;639.13;291.25;;;;;;;;;;5043214;28;20017;-57
2023/04/17 08:12:43;;;;;;;607.35;282.30;;;;;;;;;;5041604;28;20225;-56
2023/04/17 08:15:09;;;;;;;632.05;299.27;;;;;;;;;;5042663;28;20033;-57
2023/04/17 08:17:34;;;;;;;605.15;300.45;;;;;;;;;;5039867;28;20025;-57
2023/04/17 08:20:01;;;;;;;618.83;286.40;;;;;;;;;;5045407;28;20097;-56
2023/04/17 08:22:27;;;;;;;635.53;291.45;;;;;;;;;;5041847;28;20020;-57
2023/04/17 08:24:56;;;;;;;636.88;315.80;;;;;;;;;;5043778;28;20025;-56
2023/04/17 08:27:21;;;;;;;655.33;302.13;;;;;;;;;;5040881;28;20037;-56
2023/04/17 08:29:46;;;;;;;631.72;300.88;;;;;;;;;;5041318;28;20453;-57
2023/04/17 08:32:11;;;;;;;654.13;316.50;;;;;;;;;;5040554;28;20041;-58
2023/04/17 08:34:37;;;;;;;674.97;316.40;;;;;;;;;;5042312;28;20034;-58
2023/04/17 08:37:03;;;;;;;616.70;303.45;;;;;;;;;;5041791;28;20039;-58
2023/04/17 08:39:28;;;;;;;635.42;294.50;;;;;;;;;;5043259;28;20048;-58
2023/04/17 08:41:59;;;;;;;677.63;304.25;;;;;;;;;;5043564;28;20078;-56
2023/04/17 08:44:25;;;;;;;647.17;318.17;;;;;;;;;;5045434;28;20020;-59
2023/04/17 08:46:51;;;;;;;657.90;303.40;;;;;;;;;;5040787;28;20033;-58
2023/04/17 08:49:16;;;;;;;654.63;330.35;;;;;;;;;;5043002;28;20103;-58
2023/04/17 08:51:41;;;;;;;645.70;318.60;;;;;;;;;;5044828;28;20090;-58
2023/04/17 08:54:06;;;;;;;666.97;325.15;;;;;;;;;;5044286;28;20029;-58
2023/04/17 08:56:32;;;;;;;670.17;323.70;;;;;;;;;;5043271;28;20087;-58
2023/04/17 08:58:57;;;;;;;712.10;324.25;;;;;;;;;;5041982;28;20033;-57
2023/04/17 09:01:22;;;;;;;672.15;322.48;;;;;;;;;;5044406;28;20051;-56
2023/04/17 09:03:48;;;;;;;647.67;310.35;;;;;;;;;;5042237;28;20029;-59
2023/04/17 09:06:14;;;;;;;673.20;316.33;;;;;;;;;;5041751;28;20095;-58
2023/04/17 09:08:53;;;;;;;654.33;304.75;;;;;;;;;;5041455;28;20025;-59
2023/04/17 09:11:18;;;;;;;639.20;311.95;;;;;;;;;;5041957;28;20036;-57
2023/04/17 09:13:43;;;;;;;660.10;335.02;;;;;;;;;;5039317;28;20108;-58
2023/04/17 09:16:09;;;;;;;702.53;351.45;;;;;;;;;;5041026;28;20782;-58
2023/04/17 09:18:35;;;;;;;676.08;340.25;;;;;;;;;;5042217;28;20140;-59
2023/04/17 09:21:01;;;;;;;656.70;327.45;;;;;;;;;;5046897;28;20141;-57
2023/04/17 09:23:28;;;;;;;648.28;325.00;;;;;;;;;;5041878;28;20095;-59
2023/04/17 09:26:09;;;;;;;680.75;341.17;;;;;;;;;;5039968;28;20033;-58
2023/04/17 09:28:38;;;;;;;612.33;298.45;;;;;;;;;;5041359;28;20033;-58
2023/04/17 09:31:04;;;;;;;610.08;272.95;;;;;;;;;;5042232;28;20036;-58
2023/04/17 09:33:30;;;;;;;637.25;292.98;;;;;;;;;;5041868;28;20117;-58
2023/04/17 09:35:55;;;;;;;676.95;311.10;;;;;;;;;;5042760;28;20082;-58
2023/04/17 09:38:36;;;;;;;629.55;291.90;;;;;;;;;;5042757;28;20086;-59
2023/04/17 09:41:02;;;;;;;669.22;317.35;;;;;;;;;;5046802;28;20553;-56
2023/04/17 09:43:39;;;;;;;646.42;304.05;;;;;;;;;;5043239;28;20029;-57
2023/04/17 09:46:04;;;;;;;657.70;301.42;;;;;;;;;;5046996;28;20029;-56
2023/04/17 09:48:29;;;;;;;640.90;298.75;;;;;;;;;;5046066;28;20032;-56
2023/04/17 09:50:55;;;;;;;636.73;295.30;;;;;;;;;;5046182;28;20090;-56
2023/04/17 09:53:21;;;;;;;623.92;277.30;;;;;;;;;;5045845;28;20272;-55
2023/04/17 09:55:48;;;;;;;616.90;279.58;;;;;;;;;;5047755;28;20048;-56
2023/04/17 09:58:13;;;;;;;644.72;296.60;;;;;;;;;;5047325;28;20021;-55
2023/04/17 10:00:39;;;;;;;615.92;278.13;;;;;;;;;;5047634;28;20044;-56
2023/04/17 10:03:05;;;;;;;748.67;323.17;;;;;;;;;;5046923;28;20051;-56
2023/04/17 10:05:31;;;;;;;641.70;289.15;;;;;;;;;;5041501;28;20140;-55
2023/04/17 10:07:56;;;;;;;651.83;305.55;;;;;;;;;;5043947;28;20017;-56
2023/04/17 10:10:22;;;;;;;697.58;334.77;;;;;;;;;;5046938;28;20064;-56
2023/04/17 10:12:48;;;;;;;720.33;326.92;;;;;;;;;;5045085;28;20024;-55
2023/04/17 10:15:14;;;;;;;704.70;329.30;;;;;;;;;;5043983;28;20021;-54
2023/04/17 10:17:40;;;;;;;678.97;322.63;;;;;;;;;;5043330;28;20032;-56
2023/04/17 10:20:16;;;;;;;708.60;333.70;;;;;;;;;;5045868;28;20024;-57
2023/04/17 10:22:42;;;;;;;699.72;347.77;;;;;;;;;;5043718;28;20021;-57
2023/04/17 10:25:10;;;;;;;709.92;341.67;;;;;;;;;;5045333;28;20028;-56
2023/04/17 10:27:35;;;;;;;672.42;298.05;;;;;;;;;;5046706;28;20030;-58
2023/04/17 10:30:01;;;;;;;695.37;308.23;;;;;;;;;;5042132;28;20013;-56
2023/04/17 10:32:29;;;;;;;683.05;311.35;;;;;;;;;;5039980;28;20941;-57
2023/04/17 10:34:59;;;;;;;671.42;314.73;;;;;;;;;;5041371;28;20036;-57
2023/04/17 10:37:43;;;;;;;714.20;300.88;;;;;;;;;;5045999;28;20037;-55
2023/04/17 10:40:09;;;;;;;719.88;348.80;;;;;;;;;;5043644;28;20029;-57
2023/04/17 10:42:34;;;;;;;706.63;325.00;;;;;;;;;;5041189;28;20086;-55
2023/04/17 10:45:03;;;;;;;725.05;328.35;;;;;;;;;;5043672;28;20020;-57
2023/04/17 10:47:30;;;;;;;715.67;324.13;;;;;;;;;;5044036;28;20123;-56
2023/04/17 10:49:58;;;;;;;713.67;341.48;;;;;;;;;;5044625;28;20047;-57
2023/04/17 10:52:33;;;;;;;705.58;328.05;;;;;;;;;;5045375;28;20043;-55
2023/04/17 10:55:02;;;;;;;693.20;335.23;;;;;;;;;;5043793;28;20099;-55
2023/04/17 10:57:46;;;;;;;704.83;328.25;;;;;;;;;;5042685;28;20270;-58
2023/04/17 11:00:12;;;;;;;708.05;324.25;;;;;;;;;;5043970;28;20611;-55
2023/04/17 11:02:37;;;;;;;685.63;315.73;;;;;;;;;;5045324;28;20029;-57
2023/04/17 11:05:06;;;;;;;693.75;318.17;;;;;;;;;;5043605;28;20029;-56
2023/04/17 11:07:34;;;;;;;712.53;309.60;;;;;;;;;;5043876;28;20040;-57
2023/04/17 11:10:00;;;;;;;710.97;313.67;;;;;;;;;;5045969;28;20048;-55
2023/04/17 11:12:26;;;;;;;688.88;298.15;;;;;;;;;;5045233;28;20063;-56
2023/04/17 11:14:51;;;;;;;712.78;318.88;;;;;;;;;;5042136;28;20020;-58
2023/04/17 11:17:16;;;;;;;683.93;298.83;;;;;;;;;;5041393;28;20053;-58
2023/04/17 11:19:41;;;;;;;679.67;294.02;;;;;;;;;;5042013;28;20287;-58
2023/04/17 11:22:09;;;;;;;668.67;312.85;;;;;;;;;;5045063;28;20215;-58
2023/04/17 11:24:34;;;;;;;671.55;301.10;;;;;;;;;;5045350;28;20054;-58
2023/04/17 11:27:00;;;;;;;669.22;300.67;;;;;;;;;;5044480;28;20450;-57
2023/04/17 11:29:25;;;;;;;678.60;298.45;;;;;;;;;;5041893;28;20039;-57
2023/04/17 11:31:52;;;;;;;634.90;287.50;;;;;;;;;;5043236;28;20506;-57
2023/04/17 11:34:18;;;;;;;650.22;306.00;;;;;;;;;;5040565;28;20046;-58
2023/04/17 11:36:49;;;;;;;653.08;304.35;;;;;;;;;;5040180;28;20033;-57
2023/04/17 11:39:14;;;;;;;651.77;299.30;;;;;;;;;;5043167;28;20459;-57
2023/04/17 11:41:42;;;;;;;638.92;293.17;;;;;;;;;;5044143;28;20273;-58
2023/04/17 11:44:08;;;;;;;605.33;292.05;;;;;;;;;;5042540;28;20035;-57
2023/04/17 11:46:34;;;;;;;631.95;286.60;;;;;;;;;;5043575;28;20204;-58
2023/04/17 11:48:59;;;;;;;675.83;284.35;;;;;;;;;;5042753;28;20123;-58
2023/04/17 11:51:25;;;;;;;618.50;283.07;;;;;;;;;;5041861;28;20040;-57
2023/04/17 11:53:51;;;;;;;644.75;293.85;;;;;;;;;;5041145;28;20251;-57
2023/04/17 11:56:17;;;;;;;621.58;275.73;;;;;;;;;;5044714;28;20088;-57
2023/04/17 11:58:45;;;;;;;636.47;280.40;;;;;;;;;;5039381;28;20025;-59
2023/04/17 12:01:12;;;;;;;641.25;275.17;;;;;;;;;;5039850;28;20041;-56
2023/04/17 12:03:37;;;;;;;622.13;287.10;;;;;;;;;;5044243;28;20493;-58
2023/04/17 12:06:03;;;;;;;648.50;294.38;;;;;;;;;;5042572;28;20039;-56
2023/04/17 12:08:29;;;;;;;639.40;286.20;;;;;;;;;;5043458;28;20025;-57
2023/04/17 12:10:56;;;;;;;654.90;281.20;;;;;;;;;;5044375;28;20544;-57
2023/04/17 12:13:21;;;;;;;662.78;279.30;;;;;;;;;;5041539;28;20067;-57
2023/04/17 12:15:47;;;;;;;634.50;280.92;;;;;;;;;;5044668;28;20167;-57
2023/04/17 12:18:12;;;;;;;627.00;283.27;;;;;;;;;;5044250;28;20624;-57
2023/04/17 12:20:37;;;;;;;650.60;287.87;;;;;;;;;;5042205;28;20038;-57
2023/04/17 12:23:04;;;;;;;742.20;291.38;;;;;;;;;;5040540;28;20772;-57
2023/04/17 12:25:30;;;;;;;680.83;289.27;;;;;;;;;;5044422;28;20227;-57
2023/04/17 12:27:58;;;;;;;617.10;267.90;;;;;;;;;;5043100;28;20404;-57
2023/04/17 12:30:23;;;;;;;652.55;269.15;;;;;;;;;;5039410;28;20036;-57
2023/04/17 12:32:48;;;;;;;674.97;285.65;;;;;;;;;;5042305;28;20025;-56
2023/04/17 12:35:14;;;;;;;655.78;276.25;;;;;;;;;;5043220;28;20021;-58
2023/04/17 12:37:40;;;;;;;629.80;279.58;;;;;;;;;;5043059;28;20020;-55
2023/04/17 12:40:06;;;;;;;678.53;276.90;;;;;;;;;;5040080;28;20170;-58
2023/04/17 12:42:31;;;;;;;644.15;274.63;;;;;;;;;;5044148;28;20433;-57
2023/04/17 12:44:57;;;;;;;680.63;285.50;;;;;;;;;;5044305;28;20029;-57
2023/04/17 12:47:22;;;;;;;666.75;299.50;;;;;;;;;;5038402;28;20040;-58
2023/04/17 12:49:47;;;;;;;655.13;311.20;;;;;;;;;;5040572;28;20747;-58
2023/04/17 12:52:12;;;;;;;689.97;309.87;;;;;;;;;;5043386;28;20032;-57
2023/04/17 12:54:39;;;;;;;707.57;321.20;;;;;;;;;;5043165;28;20258;-57
2023/04/17 12:57:05;;;;;;;703.35;313.40;;;;;;;;;;5039475;28;20833;-58
2023/04/17 12:59:30;;;;;;;684.10;310.08;;;;;;;;;;5042580;28;20035;-57
2023/04/17 13:01:55;;;;;;;677.08;309.58;;;;;;;;;;5044951;28;20468;-58
2023/04/17 13:04:20;;;;;;;682.42;319.38;;;;;;;;;;5038788;28;20106;-56
2023/04/17 13:06:46;;;;;;;694.97;298.60;;;;;;;;;;5039016;28;20099;-57
2023/04/17 13:09:11;;;;;;;655.90;303.23;;;;;;;;;;5039758;28;20254;-56
2023/04/17 13:11:36;;;;;;;698.93;327.83;;;;;;;;;;5043697;28;20037;-56
2023/04/17 13:14:02;;;;;;;680.43;318.10;;;;;;;;;;5047786;28;20247;-57
2023/04/17 13:16:27;;;;;;;694.65;334.42;;;;;;;;;;5044534;28;20645;-55
2023/04/17 13:18:52;;;;;;;706.20;330.57;;;;;;;;;;5046879;28;20029;-56
2023/04/17 13:21:17;;;;;;;703.50;344.97;;;;;;;;;;5045625;28;20280;-56
2023/04/17 13:23:43;;;;;;;722.60;368.15;;;;;;;;;;5042466;28;20259;-54
2023/04/17 13:26:08;;;;;;;684.22;334.20;;;;;;;;;;5044628;28;20274;-55
2023/04/17 13:28:33;;;;;;;687.53;337.73;;;;;;;;;;5046700;28;20052;-54
2023/04/17 13:30:58;;;;;;;739.40;361.60;;;;;;;;;;5044651;28;20255;-57
2023/04/17 13:33:24;;;;;;;668.13;300.33;;;;;;;;;;5045841;28;20254;-56
2023/04/17 13:35:52;;;;;;;692.70;330.05;;;;;;;;;;5044251;28;20037;-55
2023/04/17 13:38:17;;;;;;;677.83;330.95;;;;;;;;;;5046381;28;20063;-56
2023/04/17 13:40:42;;;;;;;711.28;359.35;;;;;;;;;;5046164;28;20037;-56
2023/04/17 13:43:07;;;;;;;716.65;354.27;;;;;;;;;;5046351;28;20306;-56
2023/04/17 13:45:33;;;;;;;714.63;343.45;;;;;;;;;;5046665;28;20095;-56